Time;durP1;ratioP1;P1;durP2;ratioP2;P2;SDS_P1;SDS_P2;PMS_P1;PMS_P2;Temp;Humidity;BMP_temperature;BMP_pressure;BME280_temperature;BME280_humidity;BME280_pressure;Samples;Min_cycle;Max_cycle;Signal;HPM_P1;HPM_P2
2021/11/10 00:00:44;;;;;;;;;45.33;42.33;;;;;;;;5076891;27;8806;-81
2021/11/10 00:03:13;;;;;;;;;48.67;43.33;;;;;;;;5080044;28;9763;-84
2021/11/10 00:05:41;;;;;;;;;37.00;33.00;;;;;;;;5079381;28;8990;-80
2021/11/10 00:08:09;;;;;;;;;54.67;42.00;;;;;;;;5075951;28;8870;-81
2021/11/10 00:10:37;;;;;;;;;39.67;38.00;;;;;;;;5073523;28;8860;-80
2021/11/10 00:13:19;;;;;;;;;40.67;36.00;;;;;;;;5073452;28;8880;-79
2021/11/10 00:15:48;;;;;;;;;32.33;32.33;;;;;;;;5073152;28;9017;-80
2021/11/10 00:18:17;;;;;;;;;40.00;38.67;;;;;;;;5075481;28;8863;-79
2021/11/10 00:20:45;;;;;;;;;47.67;39.00;;;;;;;;5071002;28;8883;-80
2021/11/10 00:23:12;;;;;;;;;48.33;44.00;;;;;;;;5072660;28;8867;-79
2021/11/10 00:25:40;;;;;;;;;39.00;39.00;;;;;;;;5075833;28;8969;-79
2021/11/10 00:28:07;;;;;;;;;46.67;38.67;;;;;;;;5086610;28;8953;-82
2021/11/10 00:30:35;;;;;;;;;45.33;40.67;;;;;;;;5083115;27;8836;-79
2021/11/10 00:33:02;;;;;;;;;46.00;41.33;;;;;;;;5076602;28;9657;-82
2021/11/10 00:35:31;;;;;;;;;51.33;45.67;;;;;;;;5083401;28;9649;-82
2021/11/10 00:37:58;;;;;;;;;56.33;47.67;;;;;;;;5087122;28;8860;-83
2021/11/10 00:40:26;;;;;;;;;53.00;45.67;;;;;;;;5080728;28;8883;-82
2021/11/10 00:42:53;;;;;;;;;43.33;41.00;;;;;;;;5086618;28;9637;-80
2021/11/10 00:45:21;;;;;;;;;53.33;47.33;;;;;;;;5075999;28;8864;-79
2021/11/10 00:47:48;;;;;;;;;51.00;45.67;;;;;;;;5079349;28;8882;-82
2021/11/10 00:50:16;;;;;;;;;51.00;44.67;;;;;;;;5086057;28;8872;-79
2021/11/10 00:52:44;;;;;;;;;48.67;44.00;;;;;;;;5085463;28;8967;-80
2021/11/10 00:55:12;;;;;;;;;57.67;49.67;;;;;;;;5083804;28;8864;-79
2021/11/10 00:57:39;;;;;;;;;65.00;53.00;;;;;;;;5079633;28;8839;-84
2021/11/10 01:00:08;;;;;;;;;59.67;47.33;;;;;;;;5073561;27;8852;-83
2021/11/10 01:02:36;;;;;;;;;58.67;48.33;;;;;;;;5076556;28;8832;-84
2021/11/10 01:05:03;;;;;;;;;72.00;54.00;;;;;;;;5079457;28;8874;-85
2021/11/10 01:07:30;;;;;;;;;83.75;63.50;;;;;;;;5081542;28;9006;-76
2021/11/10 01:10:01;;;;;;;;;82.00;59.67;;;;;;;;5077028;28;9012;-82
2021/11/10 01:12:29;;;;;;;;;65.33;53.67;;;;;;;;5081234;28;8864;-80
2021/11/10 01:14:57;;;;;;;;;55.33;46.33;;;;;;;;5082063;28;8982;-80
2021/11/10 01:17:25;;;;;;;;;56.00;47.00;;;;;;;;5069977;28;8909;-82
2021/11/10 01:19:52;;;;;;;;;59.00;48.00;;;;;;;;5080751;28;8856;-84
2021/11/10 01:22:19;;;;;;;;;68.33;51.00;;;;;;;;5084956;28;8860;-82
2021/11/10 01:24:47;;;;;;;;;65.00;50.33;;;;;;;;5081161;28;8988;-77
2021/11/10 01:27:16;;;;;;;;;58.67;44.00;;;;;;;;5083268;28;8907;-82
2021/11/10 01:29:44;;;;;;;;;64.67;49.67;;;;;;;;5083170;28;8925;-78
2021/11/10 01:32:12;;;;;;;;;58.00;49.33;;;;;;;;5074055;28;8804;-80
2021/11/10 01:34:39;;;;;;;;;68.67;55.00;;;;;;;;5076494;28;8868;-79
2021/11/10 01:37:07;;;;;;;;;72.33;59.67;;;;;;;;5081630;28;8852;-79
2021/11/10 01:39:34;;;;;;;;;67.67;51.33;;;;;;;;5080339;28;8974;-80
2021/11/10 01:42:04;;;;;;;;;61.00;48.67;;;;;;;;5080813;28;8970;-81
2021/11/10 01:44:35;;;;;;;;;60.00;47.67;;;;;;;;5072912;28;8880;-80
2021/11/10 01:47:07;;;;;;;;;47.00;41.33;;;;;;;;5073081;28;9006;-79
2021/11/10 01:49:35;;;;;;;;;55.00;46.33;;;;;;;;5082385;28;8882;-83
2021/11/10 01:52:02;;;;;;;;;59.00;47.33;;;;;;;;5082060;28;9598;-83
2021/11/10 01:54:32;;;;;;;;;44.33;43.33;;;;;;;;5075956;28;8828;-82
2021/11/10 01:57:00;;;;;;;;;57.33;47.00;;;;;;;;5083995;28;8864;-84
2021/11/10 01:59:35;;;;;;;;;48.00;40.67;;;;;;;;5075879;28;11028;-84
2021/11/10 02:02:04;;;;;;;;;57.00;46.00;;;;;;;;5079394;28;8860;-81
2021/11/10 02:04:33;;;;;;;;;47.33;44.67;;;;;;;;5072857;28;9806;-79
2021/11/10 02:07:01;;;;;;;;;52.67;44.67;;;;;;;;5070181;28;9019;-82
2021/11/10 02:09:29;;;;;;;;;50.00;45.00;;;;;;;;5072276;28;8851;-83
2021/11/10 02:11:59;;;;;;;;;44.33;41.00;;;;;;;;5072414;28;8896;-80
2021/11/10 02:14:28;;;;;;;;;45.67;41.00;;;;;;;;5074697;28;9625;-81
2021/11/10 02:16:57;;;;;;;;;46.00;41.33;;;;;;;;5072328;28;8876;-80
2021/11/10 02:19:25;;;;;;;;;45.00;42.00;;;;;;;;5074767;28;8861;-80
2021/11/10 02:21:57;;;;;;;;;57.33;49.00;;;;;;;;5076501;28;8907;-81
2021/11/10 02:24:27;;;;;;;;;47.00;44.00;;;;;;;;5074534;28;8939;-81
2021/11/10 02:26:55;;;;;;;;;41.67;39.33;;;;;;;;5084485;28;8951;-80
2021/11/10 02:29:25;;;;;;;;;50.33;42.67;;;;;;;;5069617;28;9667;-80
2021/11/10 02:31:54;;;;;;;;;43.00;39.33;;;;;;;;5075269;28;8819;-81
2021/11/10 02:34:21;;;;;;;;;46.00;40.00;;;;;;;;5079765;28;8848;-80
2021/11/10 02:36:49;;;;;;;;;45.33;40.33;;;;;;;;5083773;28;9663;-80
2021/11/10 02:39:21;;;;;;;;;38.33;33.00;;;;;;;;5078504;28;8871;-82
2021/11/10 02:41:48;;;;;;;;;43.00;40.33;;;;;;;;5074689;28;8910;-83
2021/11/10 02:44:17;;;;;;;;;45.67;39.67;;;;;;;;5082412;28;9721;-84
2021/11/10 02:46:45;;;;;;;;;52.00;42.00;;;;;;;;5068086;28;8850;-82
2021/11/10 02:49:13;;;;;;;;;44.33;42.33;;;;;;;;5074309;28;8870;-82
2021/11/10 02:51:54;;;;;;;;;48.33;42.33;;;;;;;;5071954;28;8937;-83
2021/11/10 02:54:24;;;;;;;;;56.33;47.00;;;;;;;;5080562;28;8968;-83
2021/11/10 02:56:52;;;;;;;;;48.67;40.67;;;;;;;;5078706;28;9760;-83
2021/11/10 02:59:20;;;;;;;;;50.33;42.67;;;;;;;;5074116;28;8886;-82
2021/11/10 03:01:47;;;;;;;;;46.33;42.33;;;;;;;;5078435;27;8871;-82
2021/11/10 03:04:20;;;;;;;;;50.67;42.67;;;;;;;;5073347;28;8856;-81
2021/11/10 03:06:47;;;;;;;;;48.00;44.00;;;;;;;;5069712;28;8870;-81
2021/11/10 03:09:18;;;;;;;;;58.33;43.67;;;;;;;;5074099;28;9007;-79
2021/11/10 03:11:47;;;;;;;;;49.67;40.67;;;;;;;;5064328;28;8902;-81
2021/11/10 03:14:15;;;;;;;;;30.33;30.33;;;;;;;;5074446;28;9064;-79
2021/11/10 03:16:43;;;;;;;;;45.67;42.33;;;;;;;;5079825;28;8856;-80
2021/11/10 03:19:10;;;;;;;;;35.33;35.33;;;;;;;;5079812;28;8861;-79
2021/11/10 03:21:37;;;;;;;;;33.67;33.67;;;;;;;;5076849;28;9005;-81
2021/11/10 03:24:05;;;;;;;;;39.00;34.33;;;;;;;;5080149;28;8872;-82
2021/11/10 03:26:33;;;;;;;;;48.67;41.33;;;;;;;;5068175;28;9612;-81
2021/11/10 03:29:03;;;;;;;;;41.67;37.67;;;;;;;;5073143;28;9679;-81
2021/11/10 03:31:31;;;;;;;;;40.67;39.67;;;;;;;;5073052;28;8821;-82
2021/11/10 03:33:58;;;;;;;;;31.33;31.33;;;;;;;;5077033;28;8867;-80
2021/11/10 03:36:25;;;;;;;;;35.67;32.00;;;;;;;;5072719;28;8870;-80
2021/11/10 03:38:53;;;;;;;;;47.67;42.33;;;;;;;;5075930;28;8902;-80
2021/11/10 03:41:20;;;;;;;;;32.00;29.33;;;;;;;;5068959;28;8890;-79
2021/11/10 03:43:51;;;;;;;;;34.67;32.33;;;;;;;;5071063;28;8860;-79
2021/11/10 03:46:20;;;;;;;;;38.33;36.67;;;;;;;;5081346;28;8911;-86
2021/11/10 03:48:48;;;;;;;;;41.33;37.33;;;;;;;;5081709;28;8987;-85
2021/11/10 03:51:16;;;;;;;;;40.00;37.00;;;;;;;;5076924;28;9011;-84
2021/11/10 03:53:43;;;;;;;;;42.00;37.00;;;;;;;;5071581;28;8897;-82
2021/11/10 03:56:11;;;;;;;;;45.67;36.67;;;;;;;;5067460;28;9687;-81
2021/11/10 03:58:38;;;;;;;;;38.67;35.00;;;;;;;;5071830;28;8893;-81
2021/11/10 04:01:07;;;;;;;;;38.00;34.33;;;;;;;;5079402;27;8893;-80
2021/11/10 04:03:36;;;;;;;;;36.00;33.67;;;;;;;;5072771;28;8859;-82
2021/11/10 04:06:03;;;;;;;;;40.67;34.33;;;;;;;;5076404;28;8994;-82
2021/11/10 04:08:31;;;;;;;;;40.67;33.00;;;;;;;;5072913;28;8832;-78
2021/11/10 04:11:00;;;;;;;;;44.00;37.00;;;;;;;;5072730;28;8956;-84
2021/11/10 04:13:27;;;;;;;;;37.33;32.00;;;;;;;;5073832;28;8855;-85
2021/11/10 04:15:54;;;;;;;;;51.33;35.33;;;;;;;;5076699;28;9006;-79
2021/11/10 04:18:23;;;;;;;;;39.67;35.67;;;;;;;;5069255;28;8857;-83
2021/11/10 04:20:52;;;;;;;;;33.00;28.00;;;;;;;;5074186;28;8878;-81
2021/11/10 04:23:19;;;;;;;;;29.00;29.00;;;;;;;;5072683;28;8882;-84
2021/11/10 04:25:46;;;;;;;;;34.33;33.33;;;;;;;;5070600;28;8886;-78
2021/11/10 04:28:14;;;;;;;;;42.33;35.67;;;;;;;;5070816;28;9593;-79
2021/11/10 04:30:41;;;;;;;;;30.00;26.33;;;;;;;;5067469;28;8810;-82
2021/11/10 04:33:09;;;;;;;;;32.33;29.00;;;;;;;;5068872;28;8866;-82
2021/11/10 04:35:38;;;;;;;;;30.33;26.00;;;;;;;;5082991;28;8894;-80
2021/11/10 04:38:06;;;;;;;;;34.00;29.67;;;;;;;;5075646;28;8868;-82
2021/11/10 04:40:34;;;;;;;;;25.67;25.00;;;;;;;;5069082;28;8861;-82
2021/11/10 04:43:01;;;;;;;;;28.33;28.00;;;;;;;;5070839;28;8856;-80
2021/11/10 04:45:31;;;;;;;;;30.67;29.33;;;;;;;;5069359;28;9592;-79
2021/11/10 04:47:59;;;;;;;;;35.00;30.67;;;;;;;;5078657;28;8871;-82
2021/11/10 04:50:27;;;;;;;;;31.33;27.33;;;;;;;;5083229;28;8896;-85
2021/11/10 04:52:54;;;;;;;;;30.00;26.00;;;;;;;;5078942;28;8882;-84
2021/11/10 04:55:23;;;;;;;;;29.67;27.00;;;;;;;;5070927;28;8881;-83
2021/11/10 04:57:50;;;;;;;;;26.33;26.33;;;;;;;;5087710;28;9629;-84
2021/11/10 05:00:18;;;;;;;;;40.00;34.33;;;;;;;;5081759;28;8870;-83
2021/11/10 05:02:45;;;;;;;;;47.00;40.67;;;;;;;;5073454;28;9680;-83
2021/11/10 05:05:12;;;;;;;;;49.67;43.33;;;;;;;;5082595;28;8944;-84
2021/11/10 05:07:40;;;;;;;;;36.33;35.00;;;;;;;;5070294;28;8862;-82
2021/11/10 05:10:08;;;;;;;;;41.00;39.33;;;;;;;;5085528;28;8859;-84
2021/11/10 05:12:37;;;;;;;;;31.33;30.33;;;;;;;;5077411;28;8864;-85
2021/11/10 05:15:05;;;;;;;;;34.67;33.67;;;;;;;;5081212;28;9647;-84
2021/11/10 05:17:33;;;;;;;;;28.00;28.00;;;;;;;;5066485;28;8900;-80
2021/11/10 05:20:00;;;;;;;;;33.33;30.67;;;;;;;;5074334;28;8862;-83
2021/11/10 05:22:28;;;;;;;;;35.67;28.67;;;;;;;;5069925;28;8913;-82
2021/11/10 05:24:55;;;;;;;;;26.33;26.33;;;;;;;;5085996;28;9745;-78
2021/11/10 05:27:22;;;;;;;;;29.00;25.67;;;;;;;;5069586;28;8834;-82
2021/11/10 05:29:51;;;;;;;;;25.33;25.33;;;;;;;;5080352;28;9602;-82
2021/11/10 05:32:18;;;;;;;;;24.67;21.33;;;;;;;;5082772;28;8818;-80
2021/11/10 05:34:46;;;;;;;;;25.67;22.67;;;;;;;;5076414;28;8944;-77
2021/11/10 05:37:13;;;;;;;;;25.67;23.67;;;;;;;;5080223;28;8872;-79
2021/11/10 05:39:40;;;;;;;;;28.33;26.33;;;;;;;;5083458;28;8914;-80
2021/11/10 05:42:08;;;;;;;;;29.00;26.00;;;;;;;;5074468;28;8952;-77
2021/11/10 05:44:35;;;;;;;;;30.33;28.00;;;;;;;;5075117;28;8847;-80
2021/11/10 05:47:05;;;;;;;;;28.33;26.33;;;;;;;;5081745;28;8901;-79
2021/11/10 05:49:32;;;;;;;;;26.00;25.00;;;;;;;;5083331;28;8836;-79
2021/11/10 05:51:59;;;;;;;;;33.33;33.33;;;;;;;;5079913;28;9985;-79
2021/11/10 05:54:27;;;;;;;;;23.67;19.00;;;;;;;;5081143;28;8860;-80
2021/11/10 05:56:54;;;;;;;;;20.33;19.67;;;;;;;;5069774;28;8920;-84
2021/11/10 05:59:22;;;;;;;;;26.00;21.67;;;;;;;;5068916;28;8856;-77
2021/11/10 06:01:49;;;;;;;;;23.67;20.00;;;;;;;;5075079;27;8821;-80
2021/11/10 06:04:18;;;;;;;;;35.33;33.33;;;;;;;;5074380;28;8882;-75
2021/11/10 06:06:47;;;;;;;;;33.00;28.33;;;;;;;;5073814;28;8966;-77
2021/11/10 06:09:15;;;;;;;;;35.00;32.33;;;;;;;;5076093;28;8856;-79
2021/11/10 06:11:44;;;;;;;;;35.67;30.33;;;;;;;;5084302;28;8856;-82
2021/11/10 06:14:12;;;;;;;;;39.00;38.00;;;;;;;;5081840;28;8944;-77
2021/11/10 06:16:41;;;;;;;;;29.00;29.00;;;;;;;;5077438;28;8888;-75
2021/11/10 06:19:08;;;;;;;;;36.00;32.67;;;;;;;;5082736;28;8860;-79
2021/11/10 06:21:37;;;;;;;;;37.67;30.33;;;;;;;;5066666;28;8858;-81
2021/11/10 06:24:05;;;;;;;;;30.33;28.33;;;;;;;;5075301;28;8858;-86
2021/11/10 06:26:32;;;;;;;;;35.00;31.67;;;;;;;;5079537;28;8872;-83
2021/11/10 06:28:59;;;;;;;;;33.67;31.33;;;;;;;;5069193;28;8876;-82
2021/11/10 06:31:27;;;;;;;;;30.67;28.33;;;;;;;;5079840;28;8838;-82
2021/11/10 06:33:55;;;;;;;;;43.00;35.00;;;;;;;;5068202;28;8909;-81
2021/11/10 06:36:22;;;;;;;;;35.67;32.33;;;;;;;;5065619;28;8847;-83
2021/11/10 06:38:51;;;;;;;;;36.67;36.00;;;;;;;;5080106;28;8868;-83
2021/11/10 06:41:19;;;;;;;;;32.33;27.67;;;;;;;;5070756;28;8844;-86
2021/11/10 06:43:47;;;;;;;;;35.00;32.67;;;;;;;;5071793;28;8863;-82
2021/11/10 06:46:15;;;;;;;;;32.00;28.33;;;;;;;;5085392;28;8884;-82
2021/11/10 06:48:42;;;;;;;;;28.67;27.00;;;;;;;;5081624;28;8880;-81
2021/11/10 06:51:14;;;;;;;;;24.33;20.00;;;;;;;;5081228;28;8863;-81
2021/11/10 06:53:42;;;;;;;;;30.00;28.00;;;;;;;;5077722;28;8876;-82
2021/11/10 06:56:11;;;;;;;;;42.67;39.67;;;;;;;;5083590;28;8995;-83
2021/11/10 06:58:39;;;;;;;;;36.33;31.67;;;;;;;;5064868;28;8996;-82
2021/11/10 07:01:06;;;;;;;;;39.67;33.33;;;;;;;;5063972;28;8913;-82
2021/11/10 07:03:34;;;;;;;;;36.67;33.33;;;;;;;;5079842;28;8848;-81
2021/11/10 07:06:01;;;;;;;;;47.00;36.67;;;;;;;;5081984;28;8864;-82
2021/11/10 07:08:28;;;;;;;;;26.00;24.33;;;;;;;;5084124;28;8872;-81
2021/11/10 07:10:55;;;;;;;;;25.00;22.33;;;;;;;;5082794;28;8860;-83
2021/11/10 07:13:24;;;;;;;;;34.33;25.00;;;;;;;;5084372;28;8915;-81
2021/11/10 07:15:52;;;;;;;;;27.00;27.00;;;;;;;;5083260;28;8856;-82
2021/11/10 07:18:20;;;;;;;;;30.33;25.67;;;;;;;;5078482;28;8860;-84
2021/11/10 07:20:47;;;;;;;;;33.67;29.00;;;;;;;;5079198;28;8844;-75
2021/11/10 07:23:15;;;;;;;;;19.00;19.00;;;;;;;;5080261;28;8854;-76
2021/11/10 07:25:43;;;;;;;;;30.00;26.67;;;;;;;;5080038;28;8934;-74
2021/11/10 07:28:11;;;;;;;;;22.67;21.00;;;;;;;;5072102;28;8875;-73
2021/11/10 07:30:40;;;;;;;;;20.67;20.67;;;;;;;;5063423;28;8831;-73
2021/11/10 07:33:08;;;;;;;;;29.00;24.33;;;;;;;;5064707;28;8843;-73
2021/11/10 07:35:36;;;;;;;;;28.00;25.00;;;;;;;;5083183;28;9492;-73
2021/11/10 07:38:03;;;;;;;;;28.67;28.00;;;;;;;;5079932;28;8856;-73
2021/11/10 07:40:31;;;;;;;;;24.33;22.00;;;;;;;;5082714;28;8982;-74
2021/11/10 07:42:58;;;;;;;;;25.67;21.00;;;;;;;;5083988;28;8859;-73
2021/11/10 07:45:32;;;;;;;;;26.00;23.67;;;;;;;;5081888;28;9629;-73
2021/11/10 07:48:02;;;;;;;;;28.67;25.67;;;;;;;;5065406;28;8896;-74
2021/11/10 07:50:30;;;;;;;;;24.33;22.00;;;;;;;;5069125;28;8979;-72
2021/11/10 07:52:58;;;;;;;;;25.00;23.33;;;;;;;;5081336;28;8872;-72
2021/11/10 07:55:27;;;;;;;;;26.33;22.00;;;;;;;;5083262;28;8844;-72
2021/11/10 07:57:56;;;;;;;;;31.00;26.67;;;;;;;;5081434;28;9649;-72
2021/11/10 08:00:24;;;;;;;;;25.00;25.00;;;;;;;;5081077;28;9244;-72
2021/11/10 08:02:51;;;;;;;;;46.00;39.00;;;;;;;;5063801;28;8878;-72
2021/11/10 08:05:20;;;;;;;;;24.67;22.33;;;;;;;;5070538;28;8872;-72
2021/11/10 08:07:48;;;;;;;;;29.67;26.00;;;;;;;;5066143;28;8874;-71
2021/11/10 08:10:17;;;;;;;;;29.33;28.00;;;;;;;;5076537;28;8893;-72
2021/11/10 08:12:46;;;;;;;;;27.00;24.67;;;;;;;;5077021;28;8847;-72
2021/11/10 08:15:15;;;;;;;;;22.00;22.00;;;;;;;;5082442;28;8872;-71
2021/11/10 08:17:42;;;;;;;;;24.33;24.33;;;;;;;;5083691;28;8856;-72
2021/11/10 08:20:12;;;;;;;;;19.67;19.67;;;;;;;;5084951;28;8852;-72
2021/11/10 08:22:41;;;;;;;;;26.33;25.33;;;;;;;;5075462;28;8897;-72
2021/11/10 08:25:10;;;;;;;;;24.00;22.00;;;;;;;;5082023;28;9721;-72
2021/11/10 08:27:38;;;;;;;;;27.00;26.33;;;;;;;;5086755;28;8871;-72
2021/11/10 08:30:07;;;;;;;;;30.67;29.00;;;;;;;;5080139;27;8877;-72
2021/11/10 08:32:34;;;;;;;;;50.00;44.33;;;;;;;;5077915;28;8878;-72
2021/11/10 08:35:02;;;;;;;;;38.67;33.00;;;;;;;;5086697;28;8855;-73
2021/11/10 08:37:31;;;;;;;;;45.67;41.00;;;;;;;;5075623;28;8863;-71
2021/11/10 08:40:00;;;;;;;;;42.33;39.67;;;;;;;;5086728;28;8944;-73
2021/11/10 08:42:32;;;;;;;;;44.00;38.00;;;;;;;;5083619;28;8860;-75
2021/11/10 08:45:00;;;;;;;;;40.33;34.00;;;;;;;;5079372;28;8844;-73
2021/11/10 08:47:27;;;;;;;;;33.67;24.33;;;;;;;;5081924;28;8866;-72
2021/11/10 08:49:55;;;;;;;;;47.33;39.00;;;;;;;;5072703;28;8898;-73
2021/11/10 08:52:23;;;;;;;;;40.67;40.67;;;;;;;;5081360;28;9690;-75
2021/11/10 08:54:50;;;;;;;;;47.67;39.33;;;;;;;;5083768;28;8867;-74
2021/11/10 08:57:19;;;;;;;;;28.33;27.00;;;;;;;;5075827;28;8868;-74
2021/11/10 08:59:47;;;;;;;;;31.33;26.00;;;;;;;;5071786;28;8876;-73
2021/11/10 09:02:14;;;;;;;;;34.67;32.33;;;;;;;;5076218;28;8840;-76
2021/11/10 09:04:42;;;;;;;;;20.00;20.00;;;;;;;;5085740;28;8852;-74
2021/11/10 09:07:09;;;;;;;;;42.33;35.67;;;;;;;;5079507;28;12379;-74
2021/11/10 09:09:38;;;;;;;;;32.67;27.33;;;;;;;;5079257;28;8915;-75
2021/11/10 09:12:05;;;;;;;;;42.00;33.00;;;;;;;;5077777;28;11590;-74
2021/11/10 09:14:38;;;;;;;;;65.33;48.67;;;;;;;;5077487;28;8968;-75
2021/11/10 09:17:05;;;;;;;;;64.00;50.67;;;;;;;;5078982;28;9597;-74
2021/11/10 09:19:33;;;;;;;;;37.67;31.67;;;;;;;;5082456;28;8868;-75
2021/11/10 09:22:00;;;;;;;;;36.67;29.33;;;;;;;;5080186;28;8835;-75
2021/11/10 09:24:28;;;;;;;;;33.75;27.00;;;;;;;;5077734;28;12292;-75
2021/11/10 09:26:55;;;;;;;;;36.67;28.33;;;;;;;;5082322;28;11759;-75
2021/11/10 09:29:23;;;;;;;;;35.67;33.67;;;;;;;;5081824;28;11563;-75
2021/11/10 09:31:53;;;;;;;;;52.33;38.00;;;;;;;;5078555;28;11673;-75
2021/11/10 09:34:20;;;;;;;;;36.00;34.00;;;;;;;;5079185;28;11616;-77
2021/11/10 09:36:48;;;;;;;;;37.25;33.25;;;;;;;;5076759;28;11675;-75
2021/11/10 09:39:16;;;;;;;;;39.75;36.75;;;;;;;;5079323;28;11568;-77
2021/11/10 09:41:45;;;;;;;;;36.50;36.00;;;;;;;;5077492;28;11727;-74
2021/11/10 09:44:12;;;;;;;;;38.00;37.50;;;;;;;;5082144;28;11573;-74
2021/11/10 09:46:41;;;;;;;;;44.75;39.50;;;;;;;;5084113;28;11573;-74
2021/11/10 09:49:12;;;;;;;;;35.75;32.00;;;;;;;;5084390;28;11600;-74
2021/11/10 09:51:40;;;;;;;;;47.25;39.25;;;;;;;;5068726;28;11581;-73
2021/11/10 09:54:09;;;;;;;;;40.50;35.75;;;;;;;;5065195;28;11725;-76
2021/11/10 09:56:37;;;;;;;;;40.25;36.25;;;;;;;;5065360;28;11597;-74
2021/11/10 09:59:05;;;;;;;;;50.00;44.33;;;;;;;;5064567;28;11608;-74
2021/11/10 10:01:34;;;;;;;;;38.75;35.00;;;;;;;;5065037;28;11533;-75
2021/11/10 10:04:02;;;;;;;;;38.50;32.00;;;;;;;;5064562;28;11589;-73
2021/11/10 10:06:31;;;;;;;;;41.50;36.50;;;;;;;;5076752;28;11608;-73
2021/11/10 10:09:00;;;;;;;;;42.25;38.25;;;;;;;;5081757;28;11726;-75
2021/11/10 10:11:28;;;;;;;;;47.00;42.75;;;;;;;;5083897;28;11601;-76
2021/11/10 10:13:56;;;;;;;;;41.25;34.75;;;;;;;;5085413;28;11576;-74
2021/11/10 10:16:25;;;;;;;;;32.50;28.50;;;;;;;;5084358;28;11607;-74
2021/11/10 10:18:54;;;;;;;;;29.75;27.00;;;;;;;;5085642;28;11701;-74
2021/11/10 10:21:24;;;;;;;;;39.00;33.25;;;;;;;;5083727;28;11718;-73
2021/11/10 10:23:53;;;;;;;;;33.25;24.25;;;;;;;;5082170;28;11587;-74
2021/11/10 10:26:22;;;;;;;;;43.00;42.00;;;;;;;;5083446;28;11580;-74
2021/11/10 10:28:51;;;;;;;;;50.25;39.75;;;;;;;;5084939;28;11569;-74
2021/11/10 10:31:25;;;;;;;;;39.75;34.00;;;;;;;;5084415;27;11548;-73
2021/11/10 10:33:54;;;;;;;;;39.00;35.25;;;;;;;;5081913;28;12388;-74
2021/11/10 10:36:23;;;;;;;;;38.00;32.00;;;;;;;;5082475;28;11648;-74
2021/11/10 10:38:55;;;;;;;;;29.50;29.50;;;;;;;;5077156;28;12492;-74
2021/11/10 10:41:28;;;;;;;;;42.75;39.00;;;;;;;;5071176;28;11611;-73
2021/11/10 10:43:58;;;;;;;;;45.00;37.75;;;;;;;;5078701;28;11594;-75
2021/11/10 10:46:28;;;;;;;;;39.75;38.00;;;;;;;;5069761;28;11596;-75
2021/11/10 10:49:13;;;;;;;;;46.50;36.25;;;;;;;;5084416;28;11553;-75
2021/11/10 10:51:41;;;;;;;;;45.25;40.75;;;;;;;;5079890;28;11603;-74
2021/11/10 10:54:11;;;;;;;;;42.25;41.25;;;;;;;;5078119;28;11590;-73
2021/11/10 10:56:42;;;;;;;;;44.00;36.00;;;;;;;;5078307;28;11571;-75
2021/11/10 10:59:11;;;;;;;;;41.25;38.00;;;;;;;;5083566;28;11593;-74
2021/11/10 11:01:40;;;;;;;;;37.25;37.25;;;;;;;;5075222;27;11526;-74
2021/11/10 11:04:10;;;;;;;;;38.25;38.25;;;;;;;;5082981;28;11592;-75
2021/11/10 11:06:42;;;;;;;;;47.00;39.75;;;;;;;;5082978;28;11040;-74
2021/11/10 11:09:17;;;;;;;;;39.50;38.00;;;;;;;;5069370;28;11583;-74
2021/11/10 11:11:57;;;;;;;;;50.50;42.00;;;;;;;;5081417;28;12370;-74
2021/11/10 11:14:37;;;;;;;;;49.50;41.25;;;;;;;;5076487;28;12376;-73
2021/11/10 11:17:05;;;;;;;;;43.75;38.00;;;;;;;;5077104;28;11595;-74
2021/11/10 11:19:36;;;;;;;;;42.25;38.25;;;;;;;;5079625;28;11675;-73
2021/11/10 11:22:05;;;;;;;;;49.25;42.00;;;;;;;;5076231;28;11595;-74
2021/11/10 11:24:47;;;;;;;;;36.00;34.50;;;;;;;;5083608;28;11726;-74
2021/11/10 11:27:21;;;;;;;;;51.50;44.25;;;;;;;;5076079;28;11595;-74
2021/11/10 11:29:58;;;;;;;;;49.00;42.50;;;;;;;;5069721;28;11647;-75
2021/11/10 11:32:28;;;;;;;;;51.25;46.00;;;;;;;;5081508;28;11514;-75
2021/11/10 11:34:58;;;;;;;;;53.25;43.50;;;;;;;;5081359;28;12403;-75
2021/11/10 11:37:26;;;;;;;;;59.75;48.25;;;;;;;;5080759;28;11571;-74
2021/11/10 11:39:58;;;;;;;;;56.50;46.25;;;;;;;;5078756;28;11565;-74
2021/11/10 11:42:26;;;;;;;;;51.75;46.00;;;;;;;;5082209;28;11595;-74
2021/11/10 11:44:54;;;;;;;;;60.25;46.00;;;;;;;;5072199;28;11547;-75
2021/11/10 11:47:22;;;;;;;;;56.25;45.25;;;;;;;;5082558;28;11741;-74
2021/11/10 11:49:51;;;;;;;;;52.75;44.75;;;;;;;;5075079;28;11604;-73
2021/11/10 11:52:19;;;;;;;;;56.50;47.25;;;;;;;;5077133;28;11576;-73
2021/11/10 11:54:48;;;;;;;;;58.75;46.00;;;;;;;;5073987;28;11575;-73
2021/11/10 11:57:20;;;;;;;;;59.50;48.00;;;;;;;;5076074;28;11567;-77
2021/11/10 11:59:50;;;;;;;;;61.50;52.25;;;;;;;;5081771;28;11613;-75
2021/11/10 12:02:28;;;;;;;;;62.75;50.25;;;;;;;;5073899;28;11530;-74
2021/11/10 12:04:56;;;;;;;;;57.25;49.00;;;;;;;;5076044;28;11582;-76
2021/11/10 12:07:52;;;;;;;;;56.00;43.50;;;;;;;;5075573;28;11579;-76
2021/11/10 12:10:29;;;;;;;;;57.75;47.00;;;;;;;;5075428;28;11558;-75
2021/11/10 12:13:23;;;;;;;;;59.00;47.00;;;;;;;;5077438;28;11560;-77
2021/11/10 12:16:15;;;;;;;;;57.25;47.75;;;;;;;;5071754;28;11547;-75
2021/11/10 12:19:03;;;;;;;;;55.00;42.75;;;;;;;;5077093;28;11585;-79
2021/11/10 12:32:13;;;;;;;;;40.50;35.50;;;;;;;;5072693;27;10622;-79
2021/11/10 12:34:41;;;;;;;;;38.75;33.50;;;;;;;;5079853;28;10447;-75
2021/11/10 12:37:10;;;;;;;;;45.50;34.25;;;;;;;;5079861;28;11082;-76
2021/11/10 12:39:40;;;;;;;;;41.75;37.25;;;;;;;;5078470;28;10232;-77
2021/11/10 12:42:10;;;;;;;;;43.00;36.00;;;;;;;;5079183;28;10192;-76
2021/11/10 12:44:42;;;;;;;;;40.00;35.75;;;;;;;;5079882;28;11881;-81
2021/11/10 12:47:10;;;;;;;;;38.25;35.50;;;;;;;;5079319;28;10218;-79
2021/11/10 12:49:39;;;;;;;;;34.00;30.75;;;;;;;;5076721;28;10074;-76
2021/11/10 12:52:17;;;;;;;;;33.00;32.25;;;;;;;;5076664;28;10403;-77
2021/11/10 12:54:46;;;;;;;;;34.25;32.75;;;;;;;;5077103;28;9705;-79
2021/11/10 12:57:13;;;;;;;;;32.00;31.00;;;;;;;;5083018;28;9568;-79
2021/11/10 12:59:47;;;;;;;;;34.00;32.00;;;;;;;;5083759;28;9551;-79
2021/11/10 13:02:16;;;;;;;;;34.25;32.25;;;;;;;;5065140;27;10332;-78
2021/11/10 13:04:48;;;;;;;;;52.75;37.50;;;;;;;;5082025;28;9650;-77
2021/11/10 13:07:20;;;;;;;;;39.75;36.25;;;;;;;;5082888;28;9828;-78
2021/11/10 13:09:49;;;;;;;;;34.25;33.75;;;;;;;;5076629;28;9798;-77
2021/11/10 13:12:18;;;;;;;;;30.33;27.67;;;;;;;;5074790;28;9538;-78
2021/11/10 13:14:48;;;;;;;;;30.67;29.67;;;;;;;;5073498;28;9611;-77
2021/11/10 13:17:19;;;;;;;;;35.33;28.33;;;;;;;;5070470;28;9484;-77
2021/11/10 13:19:50;;;;;;;;;21.33;21.33;;;;;;;;5081425;28;9361;-78
2021/11/10 13:22:21;;;;;;;;;28.00;22.00;;;;;;;;5076755;28;9220;-76
2021/11/10 13:24:49;;;;;;;;;20.75;20.75;;;;;;;;5064273;28;9060;-76
2021/11/10 13:27:27;;;;;;;;;21.67;20.33;;;;;;;;5079278;28;8878;-77
2021/11/10 13:29:55;;;;;;;;;22.25;19.75;;;;;;;;5077651;28;9070;-76
2021/11/10 13:32:23;;;;;;;;;18.00;17.00;;;;;;;;5079221;28;8893;-77
2021/11/10 13:34:59;;;;;;;;;25.50;21.50;;;;;;;;5083653;28;8890;-78
2021/11/10 13:37:28;;;;;;;;;19.00;16.25;;;;;;;;5075254;28;8895;-79
2021/11/10 13:39:58;;;;;;;;;18.50;14.75;;;;;;;;5086260;28;8900;-78
2021/11/10 13:42:27;;;;;;;;;15.00;13.00;;;;;;;;5076604;28;8871;-76
2021/11/10 13:45:06;;;;;;;;;14.25;13.75;;;;;;;;5082531;28;8885;-77
2021/11/10 13:47:33;;;;;;;;;12.50;12.50;;;;;;;;5069930;28;8854;-76
2021/11/10 13:50:02;;;;;;;;;12.75;11.75;;;;;;;;5083339;28;8903;-74
2021/11/10 13:52:29;;;;;;;;;15.00;15.00;;;;;;;;5065981;28;9441;-76
2021/11/10 13:54:58;;;;;;;;;15.25;13.50;;;;;;;;5074880;28;9010;-75
2021/11/10 13:57:27;;;;;;;;;10.25;8.25;;;;;;;;5080099;28;9943;-74
2021/11/10 13:59:59;;;;;;;;;14.75;11.75;;;;;;;;5077236;28;9791;-75
2021/11/10 14:02:33;;;;;;;;;13.25;12.00;;;;;;;;5080621;27;8828;-74
2021/11/10 14:05:02;;;;;;;;;12.50;12.50;;;;;;;;5073079;28;8867;-75
2021/11/10 14:07:30;;;;;;;;;14.25;12.50;;;;;;;;5077078;28;8868;-75
2021/11/10 14:10:01;;;;;;;;;18.75;16.50;;;;;;;;5082618;28;8878;-75
2021/11/10 14:12:36;;;;;;;;;11.50;11.50;;;;;;;;5077639;28;8926;-75
2021/11/10 14:15:07;;;;;;;;;14.00;12.75;;;;;;;;5070135;28;8854;-75
2021/11/10 14:17:39;;;;;;;;;15.00;13.50;;;;;;;;5080596;28;8867;-75
2021/11/10 14:20:10;;;;;;;;;16.75;12.00;;;;;;;;5082431;28;8887;-75
2021/11/10 14:22:37;;;;;;;;;15.00;12.75;;;;;;;;5080351;28;8906;-75
2021/11/10 14:25:08;;;;;;;;;9.00;9.00;;;;;;;;5082236;28;8909;-74
2021/11/10 14:27:38;;;;;;;;;8.00;7.00;;;;;;;;5079024;28;8883;-74
2021/11/10 14:30:08;;;;;;;;;9.50;7.75;;;;;;;;5069999;27;8890;-75
2021/11/10 14:32:37;;;;;;;;;12.25;9.00;;;;;;;;5079717;28;8876;-75
2021/11/10 14:35:08;;;;;;;;;12.50;11.25;;;;;;;;5074388;28;9635;-76
2021/11/10 14:37:35;;;;;;;;;12.75;11.25;;;;;;;;5074791;28;8875;-79
2021/11/10 14:40:31;;;;;;;;;15.25;14.25;;;;;;;;5081751;28;8868;-74
2021/11/10 14:42:59;;;;;;;;;16.00;15.00;;;;;;;;5079425;28;8890;-77
2021/11/10 14:45:27;;;;;;;;;14.50;13.50;;;;;;;;5081256;28;8863;-74
2021/11/10 14:47:57;;;;;;;;;12.50;12.50;;;;;;;;5083916;28;8930;-75